الصفحة الرئيسية
METAR-TAF:

METAR-TAF

مطار :

مطار شينزين باوان الدولي

شينزين, جمهورية الصين الشعبية

دائرة عرض: 22-33N, خط طول: 114-06E, ارتفاع: 18 متر

مراقبة الطقس الحالي

تاريخ ووقت الإصدار 14 دقيقة قبل الساعة 07:00UTC
ريح 12 عقدة من الجنوب
درجة الحرارة 28°درجة مئوية
الرطوبة 74%
ضغط 1009 hPa
الرؤية 10 كم أو أكثر
الغيوم لا تقل 1500 م ولا وجود لمزنة ركامية السحاب الأسود

METAR: ZGSZ 130700Z 18006MPS CAVOK 28/23 Q1009 NOSIG

زمن: 15:14 (07:14 UTC)

توقعات

تاريخ ووقت الإصدار 4ساعات و 12 دقيقة قبل الساعة 03:02UTC
التوقعات صالحة من13 الساعة 06 UTC إلى 14 الساعة 06 UTC
ريح 8 عقدة من الجنوب
الرؤية: 6000 متر
غيوم متفرقة على ارتفاع 4000 قدم

TAF: ZGSZ 130302Z 1306/1406 19004MPS 6000 SCT040 TX30/1306Z TN25/1322Z

أرصاد الطقس والتوقعات من أكثر من 4000 مطار (تقارير الطقس للمطار METAR والتنبؤ بالطقس بالمطارTAF).

المحطات المتاحة هي النقط الصفراء والحمراء على الخريطة.

حرك المؤشر فوق النقطة لمعرفة اسم المحطة.

ثم انقر لمعرفة أرصاد وتوقعات الطقس.

لتغيير الخارطة: اضغط على الأزرار الخضراء مع رمز الصليب الأسود للتكبير. على الزر الأخضر مع شرطة للتصغير، أو على الأسهم الخضراء للخرائط المجاورة.


METAR-TAF: